createdAt,value
2018-11-25T00:00:23.762Z,2.80
2018-11-25T00:01:29.385Z,2.80
2018-11-25T00:02:34.850Z,2.90
2018-11-25T00:03:40.277Z,2.90
2018-11-25T00:04:45.731Z,2.90
2018-11-25T00:05:51.159Z,2.90
2018-11-25T00:06:56.718Z,2.90
2018-11-25T00:08:19.068Z,3.00
2018-11-25T00:09:47.443Z,2.90
2018-11-25T00:10:55.055Z,2.90
2018-11-25T00:12:00.859Z,2.80
2018-11-25T00:13:06.607Z,2.90
2018-11-25T00:14:12.221Z,2.90
2018-11-25T00:15:17.798Z,2.90
2018-11-25T00:16:23.265Z,2.80
2018-11-25T00:17:29.198Z,2.80
2018-11-25T00:18:34.763Z,2.80
2018-11-25T00:19:40.261Z,2.80
2018-11-25T00:20:45.711Z,2.80
2018-11-25T00:21:51.344Z,2.80
2018-11-25T00:22:56.761Z,2.80
2018-11-25T00:24:19.490Z,2.70
2018-11-25T00:25:25.038Z,2.70
2018-11-25T00:26:30.575Z,2.80
2018-11-25T00:27:37.631Z,2.90
2018-11-25T00:28:45.596Z,2.90
2018-11-25T00:29:51.139Z,2.80
2018-11-25T00:30:56.603Z,2.90
2018-11-25T00:32:02.465Z,2.90
2018-11-25T00:33:08.593Z,2.90
2018-11-25T00:34:23.579Z,2.80
2018-11-25T00:35:29.162Z,2.80
2018-11-25T00:36:34.580Z,2.90
2018-11-25T00:37:43.330Z,2.90
2018-11-25T00:38:45.771Z,2.80
2018-11-25T00:39:51.195Z,2.80
2018-11-25T00:40:56.620Z,2.80
2018-11-25T00:42:02.075Z,2.80
2018-11-25T00:43:07.850Z,2.80
2018-11-25T00:44:13.347Z,2.80
2018-11-25T00:45:20.487Z,2.80
2018-11-25T00:46:25.931Z,2.80
2018-11-25T00:47:31.420Z,2.70
2018-11-25T00:48:36.863Z,2.70
2018-11-25T00:49:42.342Z,2.70
2018-11-25T00:50:47.854Z,2.70
2018-11-25T00:51:53.361Z,2.70
2018-11-25T00:52:58.933Z,2.70
2018-11-25T00:54:04.414Z,2.70
2018-11-25T00:55:14.888Z,2.60
2018-11-25T00:56:20.340Z,2.60
2018-11-25T00:57:25.822Z,2.60
2018-11-25T00:58:31.351Z,2.70
2018-11-25T00:59:36.874Z,2.70
2018-11-25T01:00:52.716Z,2.70
2018-11-25T01:02:13.315Z,2.70
2018-11-25T01:03:19.064Z,2.70
2018-11-25T01:04:24.554Z,2.70
2018-11-25T01:05:30.118Z,2.70
2018-11-25T01:06:35.703Z,2.70
2018-11-25T01:07:41.294Z,2.80
2018-11-25T01:08:46.823Z,2.80
2018-11-25T01:09:52.396Z,2.70
2018-11-25T01:10:57.955Z,2.70
2018-11-25T01:12:03.411Z,2.70
2018-11-25T01:13:08.942Z,2.70
2018-11-25T01:14:14.431Z,2.70
2018-11-25T01:15:19.869Z,2.60
2018-11-25T01:16:25.572Z,2.60
2018-11-25T01:17:31.046Z,2.70
2018-11-25T01:18:36.590Z,2.70
2018-11-25T01:19:42.052Z,2.70
2018-11-25T01:20:47.686Z,2.70
2018-11-25T01:21:53.257Z,2.60
2018-11-25T01:22:58.833Z,2.70
2018-11-25T01:24:04.330Z,2.60
2018-11-25T01:25:11.351Z,2.60
2018-11-25T01:26:16.818Z,2.60
2018-11-25T01:27:22.506Z,2.60
2018-11-25T01:28:28.002Z,2.60
2018-11-25T01:29:33.491Z,2.60
2018-11-25T01:30:39.032Z,2.60
2018-11-25T01:31:44.527Z,2.60
2018-11-25T01:32:50.216Z,2.60
2018-11-25T01:33:55.826Z,2.70
2018-11-25T01:35:01.379Z,2.70
2018-11-25T01:36:06.971Z,2.70
2018-11-25T01:37:12.454Z,2.60
2018-11-25T01:38:17.916Z,2.60
2018-11-25T01:39:23.451Z,2.60
2018-11-25T01:40:28.986Z,2.60
2018-11-25T01:41:34.546Z,2.60
2018-11-25T01:42:40.083Z,2.70
2018-11-25T01:43:45.719Z,2.70
2018-11-25T01:44:51.261Z,2.60
2018-11-25T01:45:56.719Z,2.60
2018-11-25T01:47:02.218Z,2.60
2018-11-25T01:48:07.712Z,2.60
2018-11-25T01:49:13.293Z,2.60
2018-11-25T01:50:19.274Z,2.60
2018-11-25T01:51:24.956Z,2.60
2018-11-25T01:52:30.485Z,2.70
2018-11-25T01:53:35.995Z,2.60
2018-11-25T01:54:41.577Z,2.70
2018-11-25T01:55:47.378Z,2.60
2018-11-25T01:56:52.817Z,2.70
2018-11-25T01:57:58.371Z,2.70
2018-11-25T01:59:03.811Z,2.70
2018-11-25T02:00:21.880Z,2.80
2018-11-25T02:01:27.347Z,2.80
2018-11-25T02:02:32.871Z,2.70
2018-11-25T02:03:38.439Z,2.70
2018-11-25T02:04:43.853Z,2.70
2018-11-25T02:05:49.454Z,2.70
2018-11-25T02:06:54.983Z,2.80
2018-11-25T02:08:00.541Z,2.70
2018-11-25T02:09:08.813Z,2.70
2018-11-25T02:10:17.121Z,2.70
2018-11-25T02:11:22.571Z,2.80
2018-11-25T02:12:28.065Z,2.70
2018-11-25T02:13:33.571Z,2.80
2018-11-25T02:14:39.301Z,2.80
2018-11-25T02:15:44.933Z,2.80
2018-11-25T02:16:53.236Z,2.80
2018-11-25T02:18:03.127Z,2.80
2018-11-25T02:19:09.182Z,2.90
2018-11-25T02:20:24.253Z,2.90
2018-11-25T02:21:29.830Z,2.90
2018-11-25T02:22:35.323Z,2.90
2018-11-25T02:23:40.842Z,2.90
2018-11-25T02:24:46.286Z,3.00
2018-11-25T02:25:52.740Z,2.90
2018-11-25T02:26:58.196Z,2.80
2018-11-25T02:28:03.645Z,2.90
2018-11-25T02:29:09.154Z,2.90
2018-11-25T02:30:16.183Z,2.80
2018-11-25T02:31:21.638Z,2.80
2018-11-25T02:32:27.163Z,2.80
2018-11-25T02:33:32.738Z,2.80
2018-11-25T02:34:38.239Z,2.80
2018-11-25T02:35:43.669Z,2.90
2018-11-25T02:36:49.303Z,2.90
2018-11-25T02:37:54.850Z,2.80
2018-11-25T02:39:00.272Z,2.90
2018-11-25T02:40:07.928Z,2.90
2018-11-25T02:41:13.527Z,2.90
2018-11-25T02:42:19.169Z,2.90
2018-11-25T02:43:24.653Z,2.90
2018-11-25T02:44:30.176Z,2.90
2018-11-25T02:45:35.735Z,2.90
2018-11-25T02:46:41.159Z,2.80
2018-11-25T02:47:46.741Z,2.80
2018-11-25T02:48:52.255Z,2.80
2018-11-25T02:49:57.746Z,2.70
2018-11-25T02:51:03.291Z,2.70
2018-11-25T02:52:08.777Z,2.80
2018-11-25T02:53:14.357Z,2.70
2018-11-25T02:54:19.873Z,2.70
2018-11-25T02:55:26.658Z,2.70
2018-11-25T02:56:32.175Z,2.70
2018-11-25T02:57:37.737Z,2.80
2018-11-25T02:58:43.238Z,2.70
2018-11-25T02:59:48.761Z,2.80
2018-11-25T03:00:54.254Z,2.80
2018-11-25T03:01:59.748Z,2.80
2018-11-25T03:03:05.427Z,2.80
2018-11-25T03:04:10.939Z,2.80
2018-11-25T03:05:16.542Z,2.80
2018-11-25T03:06:22.099Z,2.80
2018-11-25T03:07:27.662Z,2.70
2018-11-25T03:08:33.199Z,2.70
2018-11-25T03:09:38.659Z,2.70
2018-11-25T03:10:44.192Z,2.60
2018-11-25T03:11:49.750Z,2.60
2018-11-25T03:12:55.305Z,2.70
2018-11-25T03:14:00.794Z,2.70
2018-11-25T03:15:08.922Z,2.70
2018-11-25T03:16:14.343Z,2.70
2018-11-25T03:17:19.982Z,2.70
2018-11-25T03:18:25.476Z,2.70
2018-11-25T03:19:30.900Z,2.70
2018-11-25T03:20:36.482Z,2.80
2018-11-25T03:21:41.895Z,2.80
2018-11-25T03:22:47.441Z,2.80
2018-11-25T03:23:52.906Z,2.70
2018-11-25T03:24:58.428Z,2.70
2018-11-25T03:26:03.913Z,2.70
2018-11-25T03:27:09.350Z,2.70
2018-11-25T03:28:14.813Z,2.70
2018-11-25T03:29:20.338Z,2.70
2018-11-25T03:30:25.942Z,2.70
2018-11-25T03:31:31.515Z,2.70
2018-11-25T03:32:36.985Z,2.70
2018-11-25T03:33:42.592Z,2.60
2018-11-25T03:34:48.056Z,2.60
2018-11-25T03:35:53.766Z,2.60
2018-11-25T03:36:59.225Z,2.50
2018-11-25T03:38:04.778Z,2.50
2018-11-25T03:39:10.335Z,2.50
2018-11-25T03:40:18.049Z,2.50
2018-11-25T03:41:26.015Z,2.50
2018-11-25T03:42:31.461Z,2.50
2018-11-25T03:43:37.911Z,2.60
2018-11-25T03:44:43.383Z,2.60
2018-11-25T03:45:48.964Z,2.60
2018-11-25T03:46:54.450Z,2.60
2018-11-25T03:47:59.887Z,2.60
2018-11-25T03:49:05.663Z,2.60
2018-11-25T03:50:12.617Z,2.60
2018-11-25T03:51:18.028Z,2.60
2018-11-25T03:52:23.508Z,2.60
2018-11-25T03:53:29.027Z,2.60
2018-11-25T03:54:34.903Z,2.60
2018-11-25T03:55:40.459Z,2.70
2018-11-25T03:56:45.954Z,2.60
2018-11-25T03:57:51.445Z,2.60
2018-11-25T03:58:56.971Z,2.60
2018-11-25T04:00:02.472Z,2.60
2018-11-25T04:01:08.090Z,2.60
2018-11-25T04:02:13.563Z,2.60
2018-11-25T04:03:19.018Z,2.60
2018-11-25T04:04:24.544Z,2.60
2018-11-25T04:05:30.036Z,2.60
2018-11-25T04:06:35.534Z,2.60
2018-11-25T04:07:41.092Z,2.60
2018-11-25T04:08:46.594Z,2.60
2018-11-25T04:09:52.120Z,2.60
2018-11-25T04:10:57.781Z,2.60
2018-11-25T04:12:03.257Z,2.70
2018-11-25T04:13:09.038Z,2.70
2018-11-25T04:14:14.536Z,2.70
2018-11-25T04:15:20.546Z,2.70
2018-11-25T04:16:26.081Z,2.60
2018-11-25T04:17:31.940Z,2.60
2018-11-25T04:18:37.413Z,2.60
2018-11-25T04:19:42.997Z,2.70
2018-11-25T04:20:48.528Z,2.70
2018-11-25T04:21:53.974Z,2.60
2018-11-25T04:22:59.659Z,2.60
2018-11-25T04:24:05.119Z,2.60
2018-11-25T04:25:11.905Z,2.70
2018-11-25T04:26:17.446Z,2.70
2018-11-25T04:27:22.954Z,2.70
2018-11-25T04:28:28.651Z,2.70
2018-11-25T04:29:34.187Z,2.70
2018-11-25T04:30:39.702Z,2.60
2018-11-25T04:31:45.241Z,2.70
2018-11-25T04:32:51.746Z,2.70
2018-11-25T04:33:57.258Z,2.70
2018-11-25T04:35:02.717Z,2.70
2018-11-25T04:36:08.130Z,2.70
2018-11-25T04:37:13.619Z,2.70
2018-11-25T04:38:19.175Z,2.80
2018-11-25T04:39:24.683Z,2.80
2018-11-25T04:40:30.598Z,2.80
2018-11-25T04:41:36.106Z,2.80
2018-11-25T04:42:41.637Z,2.80
2018-11-25T04:43:47.311Z,2.90
2018-11-25T04:44:52.757Z,2.80
2018-11-25T04:45:58.212Z,2.80
2018-11-25T04:47:03.655Z,2.90
2018-11-25T04:48:09.077Z,2.90
2018-11-25T04:49:14.794Z,2.90
2018-11-25T04:50:22.574Z,2.90
2018-11-25T04:51:28.110Z,2.90
2018-11-25T04:52:33.627Z,2.80
2018-11-25T04:53:39.138Z,2.80
2018-11-25T04:54:44.634Z,2.80
2018-11-25T04:55:50.143Z,2.80
2018-11-25T04:56:55.570Z,2.80
2018-11-25T04:58:01.297Z,2.80
2018-11-25T04:59:06.914Z,2.80
2018-11-25T05:00:13.478Z,2.80
2018-11-25T05:01:18.983Z,2.80
2018-11-25T05:02:24.510Z,2.90
2018-11-25T05:03:30.075Z,2.80
2018-11-25T05:04:35.627Z,2.80
2018-11-25T05:05:41.175Z,2.80
2018-11-25T05:06:46.686Z,2.80
2018-11-25T05:07:52.210Z,2.80
2018-11-25T05:08:57.788Z,2.80
2018-11-25T05:10:03.831Z,2.80
2018-11-25T05:11:09.358Z,2.80
2018-11-25T05:12:14.836Z,2.80
2018-11-25T05:13:20.341Z,2.80
2018-11-25T05:14:25.852Z,2.80
2018-11-25T05:15:31.349Z,2.80
2018-11-25T05:16:36.853Z,2.80
2018-11-25T05:17:42.567Z,2.90
2018-11-25T05:18:48.079Z,2.90
2018-11-25T05:19:53.494Z,2.90
2018-11-25T05:20:59.106Z,3.00
2018-11-25T05:22:04.702Z,3.00
2018-11-25T05:23:10.127Z,2.90
2018-11-25T05:24:15.751Z,2.90
2018-11-25T05:25:21.544Z,2.80
2018-11-25T05:26:27.071Z,2.80
2018-11-25T05:27:32.579Z,2.90
2018-11-25T05:28:38.069Z,2.90
2018-11-25T05:29:43.528Z,2.90
2018-11-25T05:30:49.059Z,2.80
2018-11-25T05:31:54.560Z,2.80
2018-11-25T05:33:00.338Z,2.90
2018-11-25T05:34:06.306Z,3.00
2018-11-25T05:35:24.345Z,2.90
2018-11-25T05:36:29.832Z,3.00
2018-11-25T05:37:35.378Z,3.00
2018-11-25T05:38:41.147Z,2.90
2018-11-25T05:39:46.713Z,2.90
2018-11-25T05:40:52.189Z,2.90
2018-11-25T05:41:57.716Z,2.90
2018-11-25T05:43:03.186Z,2.90
2018-11-25T05:44:08.714Z,2.90
2018-11-25T05:45:17.481Z,2.80
2018-11-25T05:46:23.056Z,2.90
2018-11-25T05:47:28.573Z,2.90
2018-11-25T05:48:34.079Z,2.80
2018-11-25T05:49:39.523Z,2.90
2018-11-25T05:50:45.116Z,2.90
2018-11-25T05:51:50.657Z,2.90
2018-11-25T05:52:56.196Z,2.90
2018-11-25T05:54:01.688Z,2.90
2018-11-25T05:55:09.306Z,2.90
2018-11-25T05:56:14.799Z,2.90
2018-11-25T05:57:20.386Z,2.90
2018-11-25T05:58:25.903Z,2.90
2018-11-25T05:59:31.388Z,2.80
2018-11-25T06:00:36.875Z,2.80
2018-11-25T06:01:42.507Z,2.90
2018-11-25T06:02:47.954Z,2.90
2018-11-25T06:03:53.560Z,2.90
2018-11-25T06:04:59.044Z,2.90
2018-11-25T06:06:04.658Z,2.90
2018-11-25T06:07:10.172Z,2.90
2018-11-25T06:08:15.708Z,2.90
2018-11-25T06:09:21.202Z,2.90
2018-11-25T06:10:26.754Z,2.90
2018-11-25T06:11:32.249Z,2.80
2018-11-25T06:12:37.738Z,2.80
2018-11-25T06:13:43.242Z,2.80
2018-11-25T06:14:48.758Z,2.80
2018-11-25T06:15:54.186Z,2.80
2018-11-25T06:16:59.882Z,2.80
2018-11-25T06:18:05.698Z,2.80
2018-11-25T06:19:11.187Z,2.80
2018-11-25T06:20:18.418Z,2.80
2018-11-25T06:21:23.875Z,2.80
2018-11-25T06:22:29.446Z,2.90
2018-11-25T06:23:34.890Z,2.80
2018-11-25T06:24:40.346Z,2.80
2018-11-25T06:25:45.885Z,2.80
2018-11-25T06:26:51.473Z,2.80
2018-11-25T06:27:56.989Z,2.90
2018-11-25T06:29:02.386Z,2.80
2018-11-25T06:30:11.369Z,2.80
2018-11-25T06:31:16.803Z,2.80
2018-11-25T06:32:22.217Z,2.80
2018-11-25T06:33:27.841Z,2.80
2018-11-25T06:34:33.333Z,2.80
2018-11-25T06:35:38.851Z,2.80
2018-11-25T06:36:44.375Z,2.80
2018-11-25T06:37:49.910Z,2.80
2018-11-25T06:38:55.395Z,2.80
2018-11-25T06:40:00.974Z,2.80
2018-11-25T06:41:06.974Z,2.80
2018-11-25T06:42:12.561Z,2.80
2018-11-25T06:43:18.023Z,2.70
2018-11-25T06:44:23.557Z,2.80
2018-11-25T06:45:30.654Z,2.80
2018-11-25T06:46:36.221Z,2.80
2018-11-25T06:47:41.738Z,2.80
2018-11-25T06:48:54.571Z,2.90
2018-11-25T06:49:52.939Z,2.90
2018-11-25T06:50:58.374Z,2.90
2018-11-25T06:52:03.912Z,3.00
2018-11-25T06:53:09.352Z,3.00
2018-11-25T06:54:14.792Z,2.90
2018-11-25T06:55:20.342Z,2.90
2018-11-25T06:56:27.527Z,2.90
2018-11-25T06:57:31.421Z,2.90
2018-11-25T06:58:36.936Z,3.00
2018-11-25T06:59:42.662Z,3.00
2018-11-25T07:00:48.609Z,3.00
2018-11-25T07:01:54.217Z,3.00
2018-11-25T07:02:59.730Z,2.90
2018-11-25T07:04:05.235Z,3.00
2018-11-25T07:05:11.122Z,2.90
2018-11-25T07:06:16.622Z,2.90
2018-11-25T07:07:22.185Z,3.00
2018-11-25T07:08:27.638Z,3.00
2018-11-25T07:09:33.215Z,3.10
2018-11-25T07:10:38.794Z,3.10
2018-11-25T07:11:44.293Z,3.10
2018-11-25T07:12:52.284Z,3.00
2018-11-25T07:13:57.828Z,3.00
2018-11-25T07:15:03.349Z,3.00
2018-11-25T07:16:09.004Z,3.00
2018-11-25T07:17:14.758Z,2.90
2018-11-25T07:18:20.184Z,3.00
2018-11-25T07:19:25.634Z,3.00
2018-11-25T07:20:31.171Z,3.10
2018-11-25T07:21:36.714Z,3.10
2018-11-25T07:22:42.347Z,3.10
2018-11-25T07:23:47.812Z,3.10
2018-11-25T07:24:53.391Z,3.10
2018-11-25T07:25:58.897Z,3.10
2018-11-25T07:27:04.499Z,3.00
2018-11-25T07:28:18.432Z,3.00
2018-11-25T07:29:15.407Z,3.00
2018-11-25T07:30:28.850Z,3.00
2018-11-25T07:31:34.407Z,3.00
2018-11-25T07:32:39.864Z,3.00
2018-11-25T07:33:45.465Z,2.90
2018-11-25T07:34:50.891Z,3.00
2018-11-25T07:35:56.444Z,3.00
2018-11-25T07:37:01.934Z,3.00
2018-11-25T07:38:07.721Z,3.00
2018-11-25T07:39:13.263Z,3.00
2018-11-25T07:40:21.949Z,3.00
2018-11-25T07:41:27.420Z,3.00
2018-11-25T07:42:32.919Z,3.10
2018-11-25T07:43:38.474Z,3.10
2018-11-25T07:44:43.953Z,3.10
2018-11-25T07:45:49.550Z,3.10
2018-11-25T07:46:55.300Z,3.10
2018-11-25T07:48:00.754Z,3.10
2018-11-25T07:49:06.487Z,3.10
2018-11-25T07:50:13.444Z,3.20
2018-11-25T07:51:18.957Z,3.20
2018-11-25T07:52:24.437Z,3.20
2018-11-25T07:53:29.998Z,3.20
2018-11-25T07:54:35.492Z,3.20
2018-11-25T07:55:41.054Z,3.20
2018-11-25T07:56:46.579Z,3.20
2018-11-25T07:57:54.029Z,3.20
2018-11-25T07:58:59.507Z,3.20
2018-11-25T08:00:06.226Z,3.20
2018-11-25T08:01:11.806Z,3.20
2018-11-25T08:02:17.350Z,3.10
2018-11-25T08:03:22.982Z,3.20
2018-11-25T08:04:28.423Z,3.10
2018-11-25T08:05:33.928Z,3.20
2018-11-25T08:06:39.454Z,3.20
2018-11-25T08:07:44.942Z,3.20
2018-11-25T08:08:50.391Z,3.30
2018-11-25T08:09:55.919Z,3.20
2018-11-25T08:11:01.509Z,3.20
2018-11-25T08:12:07.157Z,3.20
2018-11-25T08:13:12.666Z,3.20
2018-11-25T08:14:18.079Z,3.30
2018-11-25T08:15:23.748Z,3.20
2018-11-25T08:16:29.302Z,3.30
2018-11-25T08:17:34.813Z,3.30
2018-11-25T08:18:40.198Z,3.30
2018-11-25T08:19:45.674Z,3.30
2018-11-25T08:20:51.275Z,3.30
2018-11-25T08:21:56.766Z,3.30
2018-11-25T08:23:02.254Z,3.30
2018-11-25T08:24:07.962Z,3.30
2018-11-25T08:25:15.297Z,3.30
2018-11-25T08:26:20.985Z,3.20
2018-11-25T08:27:26.477Z,3.30
2018-11-25T08:28:31.998Z,3.20
2018-11-25T08:29:37.539Z,3.20
2018-11-25T08:30:43.083Z,3.20
2018-11-25T08:31:48.506Z,3.20
2018-11-25T08:32:54.469Z,3.30
2018-11-25T08:34:00.010Z,3.30
2018-11-25T08:35:06.036Z,3.30
2018-11-25T08:36:11.464Z,3.30
2018-11-25T08:37:16.909Z,3.30
2018-11-25T08:38:22.315Z,3.30
2018-11-25T08:39:28.422Z,3.30
2018-11-25T08:40:33.363Z,3.30
2018-11-25T08:41:39.132Z,3.30
2018-11-25T08:42:44.751Z,3.30
2018-11-25T08:43:50.258Z,3.30
2018-11-25T08:44:55.707Z,3.30
2018-11-25T08:46:01.191Z,3.30
2018-11-25T08:47:07.110Z,3.40
2018-11-25T08:48:12.537Z,3.30
2018-11-25T08:49:18.083Z,3.40
2018-11-25T08:50:23.528Z,3.50
2018-11-25T08:51:29.015Z,3.50
2018-11-25T08:52:34.497Z,3.50
2018-11-25T08:53:40.126Z,3.50
2018-11-25T08:54:45.626Z,3.50
2018-11-25T08:55:51.128Z,3.40
2018-11-25T08:56:56.584Z,3.40
2018-11-25T08:58:02.046Z,3.40
2018-11-25T08:59:07.834Z,3.40
2018-11-25T09:00:16.775Z,3.40
2018-11-25T09:01:22.252Z,3.40
2018-11-25T09:02:27.778Z,3.40
2018-11-25T09:03:33.355Z,3.40
2018-11-25T09:04:39.039Z,3.40
2018-11-25T09:05:44.495Z,3.50
2018-11-25T09:06:50.031Z,3.40
2018-11-25T09:07:55.520Z,3.50
2018-11-25T09:09:01.049Z,3.50
2018-11-25T09:10:13.402Z,3.50
2018-11-25T09:11:18.869Z,3.60
2018-11-25T09:12:24.258Z,3.50
2018-11-25T09:13:29.794Z,3.60
2018-11-25T09:14:35.226Z,3.50
2018-11-25T09:15:40.763Z,3.50
2018-11-25T09:16:46.272Z,3.50
2018-11-25T09:17:51.845Z,3.50
2018-11-25T09:18:57.293Z,3.50
2018-11-25T09:20:02.834Z,3.50
2018-11-25T09:21:08.612Z,3.50
2018-11-25T09:22:14.166Z,3.50
2018-11-25T09:23:19.630Z,3.60
2018-11-25T09:24:25.121Z,3.60
2018-11-25T09:25:32.395Z,3.60
2018-11-25T09:26:37.869Z,3.60
2018-11-25T09:27:43.440Z,3.60
2018-11-25T09:28:48.986Z,3.50
2018-11-25T09:29:54.418Z,3.50
2018-11-25T09:30:59.946Z,3.50
2018-11-25T09:32:06.276Z,3.60
2018-11-25T09:33:11.798Z,3.50
2018-11-25T09:34:17.339Z,3.50
2018-11-25T09:35:23.254Z,3.50
2018-11-25T09:36:28.958Z,3.50
2018-11-25T09:37:34.490Z,3.50
2018-11-25T09:38:39.915Z,3.50
2018-11-25T09:39:45.469Z,3.50
2018-11-25T09:40:55.151Z,3.50
2018-11-25T09:41:57.030Z,3.50
2018-11-25T09:43:02.734Z,3.50
2018-11-25T09:44:08.407Z,3.50
2018-11-25T09:45:17.335Z,3.50
2018-11-25T09:46:22.942Z,3.50
2018-11-25T09:47:28.410Z,3.50
2018-11-25T09:48:33.981Z,3.50
2018-11-25T09:49:39.479Z,3.50
2018-11-25T09:50:45.059Z,3.50
2018-11-25T09:51:50.550Z,3.60
2018-11-25T09:52:56.067Z,3.60
2018-11-25T09:54:01.554Z,3.60
2018-11-25T09:55:10.043Z,3.60
2018-11-25T09:56:15.616Z,3.60
2018-11-25T09:57:21.206Z,3.60
2018-11-25T09:58:26.742Z,3.60
2018-11-25T09:59:32.243Z,3.60
2018-11-25T10:00:37.759Z,3.50
2018-11-25T10:01:43.219Z,3.60
2018-11-25T10:02:48.769Z,3.50
2018-11-25T10:03:54.538Z,3.50
2018-11-25T10:05:00.063Z,3.60
2018-11-25T10:06:05.847Z,3.60
2018-11-25T10:07:11.401Z,3.60
2018-11-25T10:08:16.891Z,3.60
2018-11-25T10:09:22.430Z,3.70
2018-11-25T10:10:28.174Z,3.60
2018-11-25T10:11:33.712Z,3.60
2018-11-25T10:12:39.126Z,3.70
2018-11-25T10:13:45.829Z,3.70
2018-11-25T10:14:51.290Z,3.60
2018-11-25T10:15:56.803Z,3.70
2018-11-25T10:17:02.296Z,3.70
2018-11-25T10:18:08.062Z,3.60
2018-11-25T10:19:13.552Z,3.60
2018-11-25T10:20:21.591Z,3.60
2018-11-25T10:21:27.415Z,3.70
2018-11-25T10:22:32.887Z,3.70
2018-11-25T10:23:38.366Z,3.80
2018-11-25T10:24:43.910Z,3.80
2018-11-25T10:25:49.386Z,3.80
2018-11-25T10:26:54.896Z,3.80
2018-11-25T10:28:00.570Z,3.70
2018-11-25T10:29:06.090Z,3.70
2018-11-25T10:30:21.687Z,3.70
2018-11-25T10:31:27.250Z,3.70
2018-11-25T10:32:32.825Z,3.70
2018-11-25T10:33:38.395Z,3.70
2018-11-25T10:34:44.033Z,3.70
2018-11-25T10:35:49.446Z,3.70
2018-11-25T10:36:55.117Z,3.70
2018-11-25T10:38:00.694Z,3.70
2018-11-25T10:39:09.634Z,3.60
2018-11-25T10:40:18.639Z,3.70
2018-11-25T10:41:24.143Z,3.70
2018-11-25T10:42:29.686Z,3.70
2018-11-25T10:43:35.275Z,3.70
2018-11-25T10:44:40.906Z,3.80
2018-11-25T10:45:46.462Z,3.80
2018-11-25T10:46:51.882Z,3.80
2018-11-25T10:47:58.417Z,3.80
2018-11-25T10:49:04.026Z,3.80
2018-11-25T10:50:12.863Z,3.80
2018-11-25T10:51:18.306Z,3.80
2018-11-25T10:52:23.742Z,3.80
2018-11-25T10:53:29.333Z,3.80
2018-11-25T10:54:34.870Z,3.80
2018-11-25T10:55:40.395Z,3.80
2018-11-25T10:56:45.956Z,3.80
2018-11-25T10:57:53.129Z,3.80
2018-11-25T10:58:58.634Z,3.80
2018-11-25T11:00:06.037Z,3.80
2018-11-25T11:01:16.783Z,3.80
2018-11-25T11:02:57.763Z,3.90
2018-11-25T11:04:03.297Z,3.90
2018-11-25T11:05:09.426Z,3.90
2018-11-25T11:06:20.105Z,3.80
2018-11-25T11:07:30.886Z,3.80
2018-11-25T11:08:36.439Z,3.80
2018-11-25T11:09:41.967Z,3.70
2018-11-25T11:10:47.689Z,3.80
2018-11-25T11:11:53.171Z,3.70
2018-11-25T11:12:59.060Z,3.80
2018-11-25T11:14:04.559Z,3.80
2018-11-25T11:15:12.280Z,3.90
2018-11-25T11:16:17.886Z,3.80
2018-11-25T11:17:23.473Z,3.80
2018-11-25T11:18:28.898Z,3.70
2018-11-25T11:19:34.374Z,3.80
2018-11-25T11:20:39.829Z,3.80
2018-11-25T11:21:45.518Z,3.70
2018-11-25T11:22:50.944Z,3.70
2018-11-25T11:23:56.520Z,3.70
2018-11-25T11:25:02.134Z,3.70
2018-11-25T11:26:13.242Z,3.80
2018-11-25T11:27:18.784Z,3.80
2018-11-25T11:28:24.312Z,3.90
2018-11-25T11:29:29.827Z,3.90
2018-11-25T11:30:35.419Z,3.80
2018-11-25T11:31:40.995Z,3.80
2018-11-25T11:32:48.892Z,3.70
2018-11-25T11:33:54.324Z,3.80
2018-11-25T11:34:59.746Z,3.80
2018-11-25T11:36:05.366Z,3.80
2018-11-25T11:37:10.867Z,3.80
2018-11-25T11:38:16.302Z,3.80
2018-11-25T11:39:21.843Z,3.80
2018-11-25T11:40:27.458Z,3.80
2018-11-25T11:41:32.975Z,3.70
2018-11-25T11:42:38.483Z,3.80
2018-11-25T11:43:44.013Z,3.80
2018-11-25T11:44:49.562Z,3.80
2018-11-25T11:45:55.010Z,3.70
2018-11-25T11:47:00.525Z,3.80
2018-11-25T11:48:06.343Z,3.80
2018-11-25T11:49:11.911Z,3.70
2018-11-25T11:50:20.291Z,3.70
2018-11-25T11:51:27.344Z,3.70
2018-11-25T11:52:31.340Z,3.70
2018-11-25T11:53:36.817Z,3.80
2018-11-25T11:54:42.298Z,3.70
2018-11-25T11:55:47.752Z,3.70
2018-11-25T11:56:53.266Z,3.70
2018-11-25T11:57:58.902Z,3.70
2018-11-25T11:59:04.524Z,3.70
2018-11-25T12:00:18.983Z,3.70
2018-11-25T12:01:24.450Z,3.80
2018-11-25T12:02:31.654Z,3.80
2018-11-25T12:03:35.623Z,3.80
2018-11-25T12:04:41.030Z,3.80
2018-11-25T12:05:46.527Z,3.80
2018-11-25T12:06:52.103Z,3.80
2018-11-25T12:07:57.591Z,3.80
2018-11-25T12:09:03.246Z,3.80
2018-11-25T12:10:16.446Z,3.80
2018-11-25T12:11:21.975Z,3.90
2018-11-25T12:12:27.443Z,3.80
2018-11-25T12:13:32.887Z,3.80
2018-11-25T12:14:38.623Z,3.80
2018-11-25T12:15:44.141Z,3.80
2018-11-25T12:16:49.675Z,3.80
2018-11-25T12:17:55.214Z,3.80
2018-11-25T12:19:00.721Z,3.90
2018-11-25T12:20:07.182Z,3.90
2018-11-25T12:21:12.753Z,3.90
2018-11-25T12:22:18.217Z,4.00
2018-11-25T12:23:23.725Z,4.00
2018-11-25T12:24:29.230Z,4.00
2018-11-25T12:25:34.958Z,3.90
2018-11-25T12:26:40.439Z,3.90
2018-11-25T12:27:46.197Z,3.80
2018-11-25T12:28:51.731Z,3.80
2018-11-25T12:29:57.156Z,3.80
2018-11-25T12:31:02.814Z,3.80
2018-11-25T12:32:08.234Z,3.80
2018-11-25T12:33:14.019Z,3.80
2018-11-25T12:34:19.519Z,3.80
2018-11-25T12:35:25.090Z,3.80
2018-11-25T12:36:30.518Z,3.80
2018-11-25T12:37:36.447Z,3.80
2018-11-25T12:38:41.606Z,3.80
2018-11-25T12:39:47.151Z,3.80
2018-11-25T12:40:52.916Z,3.80
2018-11-25T12:41:58.367Z,3.80
2018-11-25T12:43:03.876Z,3.80
2018-11-25T12:44:09.423Z,3.90
2018-11-25T12:45:17.486Z,3.90
2018-11-25T12:46:22.954Z,3.90
2018-11-25T12:47:28.403Z,3.90
2018-11-25T12:48:34.000Z,3.80
2018-11-25T12:49:39.459Z,3.80
2018-11-25T12:50:45.027Z,3.80
2018-11-25T12:51:50.566Z,3.90
2018-11-25T12:52:56.462Z,3.80
2018-11-25T12:54:01.968Z,3.80
2018-11-25T12:55:12.342Z,3.80
2018-11-25T12:56:17.896Z,3.80
2018-11-25T12:57:23.322Z,3.80
2018-11-25T12:58:28.836Z,3.80
2018-11-25T12:59:34.357Z,3.90
2018-11-25T13:00:42.090Z,3.90
2018-11-25T13:01:47.586Z,3.90
2018-11-25T13:02:53.077Z,3.90
2018-11-25T13:03:58.573Z,3.80
2018-11-25T13:05:04.022Z,3.90
2018-11-25T13:06:09.639Z,3.90
2018-11-25T13:07:15.144Z,3.90
2018-11-25T13:08:20.688Z,3.80
2018-11-25T13:09:26.197Z,3.90
2018-11-25T13:10:31.751Z,3.90
2018-11-25T13:11:37.421Z,3.90
2018-11-25T13:12:42.918Z,3.90
2018-11-25T13:13:48.548Z,3.80
2018-11-25T13:14:54.033Z,3.90
2018-11-25T13:15:59.522Z,3.90
2018-11-25T13:17:05.053Z,3.90
2018-11-25T13:18:11.229Z,3.90
2018-11-25T13:19:16.858Z,3.90
2018-11-25T13:20:22.545Z,3.90
2018-11-25T13:21:28.125Z,3.90
2018-11-25T13:22:33.605Z,4.00
2018-11-25T13:23:43.281Z,4.00
2018-11-25T13:24:44.711Z,3.90
2018-11-25T13:25:50.247Z,4.00
2018-11-25T13:26:55.966Z,4.00
2018-11-25T13:28:01.508Z,3.90
2018-11-25T13:29:07.839Z,3.90
2018-11-25T13:30:20.510Z,3.90
2018-11-25T13:31:25.972Z,4.00
2018-11-25T13:32:31.511Z,3.90
2018-11-25T13:33:37.341Z,3.90
2018-11-25T13:34:42.740Z,4.00
2018-11-25T13:35:48.203Z,4.00
2018-11-25T13:36:53.734Z,4.00
2018-11-25T13:37:59.471Z,3.90
2018-11-25T13:39:06.935Z,3.90
2018-11-25T13:40:14.858Z,3.90
2018-11-25T13:41:20.311Z,3.90
2018-11-25T13:42:25.791Z,3.90
2018-11-25T13:43:31.392Z,3.90
2018-11-25T13:44:44.577Z,3.90
2018-11-25T13:45:50.035Z,3.90
2018-11-25T13:46:55.593Z,3.90
2018-11-25T13:48:01.127Z,3.90
2018-11-25T13:49:06.870Z,3.90
2018-11-25T13:50:13.305Z,3.80
2018-11-25T13:51:18.800Z,3.90
2018-11-25T13:52:24.354Z,3.90
2018-11-25T13:53:29.894Z,3.90
2018-11-25T13:54:35.812Z,3.90
2018-11-25T13:55:41.355Z,3.90
2018-11-25T13:56:46.935Z,3.90
2018-11-25T13:57:52.412Z,3.90
2018-11-25T13:58:57.897Z,3.90
2018-11-25T14:00:03.617Z,3.90
2018-11-25T14:01:09.075Z,3.90
2018-11-25T14:02:14.707Z,3.90
2018-11-25T14:03:25.623Z,3.80
2018-11-25T14:04:31.369Z,3.90
2018-11-25T14:05:37.075Z,3.90
2018-11-25T14:06:42.561Z,3.90
2018-11-25T14:07:48.024Z,3.90
2018-11-25T14:08:55.287Z,3.80
2018-11-25T14:10:00.755Z,3.90
2018-11-25T14:11:10.687Z,3.90
2018-11-25T14:12:16.087Z,3.90
2018-11-25T14:13:21.630Z,3.90
2018-11-25T14:14:27.157Z,3.90
2018-11-25T14:15:32.806Z,3.90
2018-11-25T14:16:38.274Z,3.90
2018-11-25T14:17:43.783Z,3.90
2018-11-25T14:18:49.415Z,3.90
2018-11-25T14:19:54.994Z,3.90
2018-11-25T14:21:00.546Z,3.90
2018-11-25T14:22:06.095Z,3.80
2018-11-25T14:23:11.599Z,3.80
2018-11-25T14:24:17.218Z,3.90
2018-11-25T14:25:24.148Z,3.80
2018-11-25T14:26:36.674Z,3.90
2018-11-25T14:27:42.366Z,3.80
2018-11-25T14:28:48.773Z,3.80
2018-11-25T14:29:54.262Z,3.80
2018-11-25T14:30:59.749Z,3.80
2018-11-25T14:32:05.283Z,3.80
2018-11-25T14:33:10.751Z,3.80
2018-11-25T14:34:16.227Z,3.80
2018-11-25T14:35:21.840Z,3.80
2018-11-25T14:36:27.311Z,3.80
2018-11-25T14:37:32.862Z,3.80
2018-11-25T14:38:38.635Z,3.80